Time;durP1;ratioP1;P1;durP2;ratioP2;P2;SDS_P1;SDS_P2;PMS_P1;PMS_P2;Temp;Humidity;BMP_temperature;BMP_pressure;BME280_temperature;BME280_humidity;BME280_pressure;Samples;Min_cycle;Max_cycle;Signal;HPM_P1;HPM_P2
2022/12/16 00:01:57;;;;;;;34.92;22.25;;;0.80;99.90;;;;;;5094847;28;20041;-62
2022/12/16 00:04:22;;;;;;;33.20;20.77;;;0.80;99.90;;;;;;5093956;28;20047;-62
2022/12/16 00:06:48;;;;;;;31.13;19.90;;;0.80;99.90;;;;;;5094977;28;20469;-62
2022/12/16 00:09:14;;;;;;;32.75;21.08;;;0.70;99.90;;;;;;5094602;28;20095;-62
2022/12/16 00:11:39;;;;;;;32.67;20.77;;;0.70;99.90;;;;;;5094835;28;20440;-61
2022/12/16 00:14:05;;;;;;;31.00;21.33;;;0.70;99.90;;;;;;5093376;28;20051;-62
2022/12/16 00:16:31;;;;;;;28.80;19.60;;;0.70;99.90;;;;;;5094623;28;20048;-62
2022/12/16 00:18:56;;;;;;;31.48;20.23;;;0.60;99.90;;;;;;5093260;28;20124;-62
2022/12/16 00:21:27;;;;;;;34.63;19.15;;;0.50;99.90;;;;;;5094722;28;20199;-62
2022/12/16 00:23:53;;;;;;;29.85;20.98;;;0.60;99.90;;;;;;5094309;28;20153;-61
2022/12/16 00:26:19;;;;;;;26.48;18.65;;;0.50;99.90;;;;;;5094381;28;20450;-61
2022/12/16 00:28:44;;;;;;;30.08;19.35;;;0.50;99.90;;;;;;5094435;28;20032;-62
2022/12/16 00:31:10;;;;;;;28.77;18.45;;;0.50;99.90;;;;;;5094274;28;20039;-62
2022/12/16 00:33:36;;;;;;;29.80;19.48;;;0.40;99.90;;;;;;5094737;28;20028;-62
2022/12/16 00:36:02;;;;;;;32.67;20.25;;;0.50;99.90;;;;;;5094478;28;20040;-61
2022/12/16 00:38:28;;;;;;;32.65;19.33;;;0.50;99.90;;;;;;5094346;28;20044;-62
2022/12/16 00:40:53;;;;;;;32.53;19.02;;;0.40;99.90;;;;;;5094542;28;20440;-61
2022/12/16 00:43:19;;;;;;;26.17;18.15;;;0.40;99.90;;;;;;5094372;28;20040;-62
2022/12/16 00:45:46;;;;;;;27.27;16.23;;;0.50;99.90;;;;;;5094125;28;20118;-61
2022/12/16 00:48:11;;;;;;;23.83;15.52;;;0.60;99.90;;;;;;5093892;28;20039;-62
2022/12/16 00:50:37;;;;;;;23.27;14.68;;;0.50;99.90;;;;;;5094098;28;20028;-62
2022/12/16 00:53:03;;;;;;;21.77;12.95;;;0.70;99.90;;;;;;5093688;28;20520;-62
2022/12/16 00:55:29;;;;;;;15.73;10.50;;;0.70;99.90;;;;;;5092689;28;20039;-61
2022/12/16 00:57:54;;;;;;;19.60;10.80;;;0.80;99.90;;;;;;5094214;28;20040;-62
2022/12/16 01:00:21;;;;;;;16.25;8.15;;;0.90;99.90;;;;;;5093898;28;20036;-61
2022/12/16 01:02:48;;;;;;;11.00;7.75;;;0.90;99.90;;;;;;5093725;28;20051;-62
2022/12/16 01:05:16;;;;;;;14.95;6.57;;;1.00;99.90;;;;;;5093840;28;20114;-61
2022/12/16 01:07:42;;;;;;;12.47;5.67;;;1.00;99.90;;;;;;5093594;28;20059;-62
2022/12/16 01:10:09;;;;;;;11.48;5.18;;;1.10;99.90;;;;;;5093807;28;20040;-61
2022/12/16 01:12:36;;;;;;;9.38;5.20;;;1.20;99.90;;;;;;5093774;28;20040;-62
2022/12/16 01:15:04;;;;;;;11.32;4.45;;;1.20;99.90;;;;;;5092372;28;20498;-61
2022/12/16 01:17:29;;;;;;;7.00;4.65;;;1.20;99.90;;;;;;5093519;28;20055;-62
2022/12/16 01:19:55;;;;;;;9.52;4.35;;;1.30;99.90;;;;;;5092274;28;20043;-61
2022/12/16 01:22:21;;;;;;;6.28;4.15;;;1.40;99.90;;;;;;5093426;28;20484;-62
2022/12/16 01:24:47;;;;;;;10.50;4.75;;;1.50;99.90;;;;;;5093690;28;20073;-62
2022/12/16 01:27:13;;;;;;;7.82;4.35;;;1.40;99.90;;;;;;5093249;28;20156;-61
2022/12/16 01:29:39;;;;;;;8.07;4.05;;;1.50;99.90;;;;;;5093185;28;20205;-62
2022/12/16 01:32:05;;;;;;;9.70;4.20;;;1.60;99.90;;;;;;5093699;28;20119;-62
2022/12/16 01:34:31;;;;;;;6.82;3.45;;;1.60;99.90;;;;;;5093293;28;20044;-62
2022/12/16 01:36:56;;;;;;;6.70;3.70;;;1.60;99.90;;;;;;5093500;28;20052;-61
2022/12/16 01:39:25;;;;;;;8.63;3.90;;;1.70;99.90;;;;;;5093281;28;20040;-62
2022/12/16 01:41:51;;;;;;;7.18;3.70;;;1.70;99.90;;;;;;5093380;28;20043;-62
2022/12/16 01:44:20;;;;;;;7.45;4.43;;;1.70;99.90;;;;;;5092919;28;20032;-61
2022/12/16 01:46:49;;;;;;;;;;;1.70;99.90;;;;;;5093552;28;20386;-62
2022/12/16 01:49:36;;;;;;;4.60;3.13;;;1.70;99.90;;;;;;5093266;28;19923;-62
2022/12/16 01:52:05;;;;;;;6.03;3.38;;;1.80;99.90;;;;;;5093035;28;20111;-62
2022/12/16 01:54:38;;;;;;;7.88;3.63;;;1.90;99.90;;;;;;5093185;28;20032;-62
2022/12/16 01:57:12;;;;;;;7.80;3.60;;;2.00;99.90;;;;;;5091792;28;20094;-62
2022/12/16 01:59:41;;;;;;;6.20;3.50;;;2.00;99.90;;;;;;5093263;28;20040;-62
2022/12/16 02:02:08;;;;;;;6.90;4.03;;;2.00;99.90;;;;;;5093095;28;20040;-61
2022/12/16 02:04:34;;;;;;;9.20;4.38;;;2.00;99.90;;;;;;5092133;28;20036;-62
2022/12/16 02:07:00;;;;;;;8.50;4.28;;;2.00;99.90;;;;;;5092942;28;20052;-62
2022/12/16 02:09:26;;;;;;;5.53;4.15;;;2.00;99.90;;;;;;5092742;28;20079;-62
2022/12/16 02:11:54;;;;;;;12.05;4.25;;;2.10;99.90;;;;;;5093070;28;20070;-62
2022/12/16 02:14:38;;;;;;;9.57;3.95;;;2.00;99.90;;;;;;5092929;28;20036;-62
2022/12/16 02:17:22;;;;;;;5.93;3.90;;;2.00;99.90;;;;;;5092359;28;20547;-62
2022/12/16 02:20:06;;;;;;;10.88;3.85;;;2.00;99.90;;;;;;5091725;28;20040;-62
2022/12/16 02:22:38;;;;;;;6.47;3.90;;;2.00;99.90;;;;;;5092925;28;20484;-62
2022/12/16 02:25:47;;;;;;;8.85;4.22;;;1.90;99.90;;;;;;5092606;28;20040;-62
2022/12/16 02:28:28;;;;;;;4.60;3.70;;;2.00;99.90;;;;;;5050041;28;20399;-62
2022/12/16 02:31:14;;;;;;;6.47;3.85;;;1.90;99.90;;;;;;5050262;28;20044;-62
2022/12/16 02:33:53;;;;;;;9.70;4.30;;;1.90;99.90;;;;;;5049952;28;20068;-62
2022/12/16 02:36:49;;;;;;;6.10;3.40;;;1.90;99.90;;;;;;5050250;28;20045;-62
2022/12/16 02:39:18;;;;;;;6.95;4.00;;;1.80;99.90;;;;;;5049934;28;20155;-62
2022/12/16 02:42:09;;;;;;;12.13;4.73;;;1.80;99.90;;;;;;5050128;28;20079;-62
2022/12/16 02:44:50;;;;;;;7.30;4.65;;;1.80;99.90;;;;;;5066807;28;20048;-62
2022/12/16 02:47:16;;;;;;;8.68;4.35;;;1.80;99.90;;;;;;5049967;28;20059;-62
2022/12/16 02:49:49;;;;;;;9.70;4.68;;;1.80;99.90;;;;;;5050242;28;20045;-62
2022/12/16 02:52:17;;;;;;;7.93;4.65;;;1.80;99.90;;;;;;5049779;28;20423;-63
2022/12/16 02:54:44;;;;;;;13.85;4.22;;;1.80;99.90;;;;;;5049801;28;20041;-63
2022/12/16 02:57:49;;;;;;;6.85;4.30;;;1.70;99.90;;;;;;5065829;28;20080;-62
2022/12/16 03:00:19;;;;;;;11.68;5.25;;;1.70;99.90;;;;;;4990467;28;20062;-63
2022/12/16 03:03:04;;;;;;;11.90;4.82;;;1.70;99.90;;;;;;5006692;28;20061;-62
2022/12/16 03:05:41;;;;;;;9.85;4.90;;;1.70;99.90;;;;;;5047779;28;20064;-62
2022/12/16 03:08:12;;;;;;;7.82;4.55;;;1.70;99.90;;;;;;5049694;28;20510;-62
2022/12/16 03:10:43;;;;;;;9.27;5.03;;;1.70;99.90;;;;;;5049750;28;20497;-62
2022/12/16 03:13:11;;;;;;;7.18;4.57;;;1.60;99.90;;;;;;5049701;28;20037;-62
2022/12/16 03:15:39;;;;;;;5.95;4.35;;;1.70;99.90;;;;;;5051354;28;20084;-62
2022/12/16 03:18:07;;;;;;;11.43;5.10;;;1.70;99.90;;;;;;5053586;28;20041;-62
2022/12/16 03:20:54;;;;;;;10.55;5.60;;;1.70;99.90;;;;;;5053524;28;20175;-62
2022/12/16 03:23:29;;;;;;;11.05;5.60;;;1.70;99.90;;;;;;5053497;28;20045;-62
2022/12/16 03:26:01;;;;;;;15.30;5.65;;;1.70;99.90;;;;;;5036993;28;20049;-62
2022/12/16 03:28:44;;;;;;;8.93;5.90;;;1.70;99.90;;;;;;5053331;28;20120;-62
2022/12/16 03:31:24;;;;;;;11.55;7.30;;;1.70;99.90;;;;;;5053345;28;20045;-62
2022/12/16 03:33:59;;;;;;;13.07;8.55;;;1.80;99.90;;;;;;5053293;28;20472;-62
2022/12/16 03:36:26;;;;;;;16.73;8.95;;;1.80;99.90;;;;;;5064934;28;20520;-62
2022/12/16 03:38:54;;;;;;;14.50;9.70;;;1.90;99.90;;;;;;5095948;28;20082;-62
2022/12/16 03:41:22;;;;;;;18.52;10.85;;;1.70;99.90;;;;;;5095817;28;20089;-62
2022/12/16 03:43:48;;;;;;;17.85;11.68;;;1.80;99.90;;;;;;5095787;28;20051;-62
2022/12/16 03:46:15;;;;;;;21.15;13.43;;;1.80;99.90;;;;;;5095352;28;20037;-62
2022/12/16 03:48:45;;;;;;;27.88;16.38;;;1.80;99.90;;;;;;5095207;28;20043;-62
2022/12/16 03:51:11;;;;;;;29.30;18.23;;;1.80;99.90;;;;;;5095263;28;20116;-62
2022/12/16 03:53:37;;;;;;;34.50;22.92;;;1.80;99.90;;;;;;5095122;28;20119;-62
2022/12/16 03:56:02;;;;;;;33.63;23.05;;;1.80;99.90;;;;;;5095326;28;20040;-62
2022/12/16 03:58:28;;;;;;;32.80;23.40;;;1.90;99.90;;;;;;5095341;28;20039;-62
2022/12/16 04:00:53;;;;;;;41.03;24.98;;;1.90;99.90;;;;;;5095378;28;20563;-62
2022/12/16 04:03:21;;;;;;;38.15;24.70;;;1.90;99.90;;;;;;5095330;28;20073;-62
2022/12/16 04:05:47;;;;;;;39.03;24.80;;;1.90;99.90;;;;;;5094874;28;20115;-62
2022/12/16 04:08:13;;;;;;;38.53;25.77;;;1.70;99.90;;;;;;5093484;28;20520;-62
2022/12/16 04:24:28;;;;;;;46.63;25.73;;;1.70;99.90;;;;;;5094689;28;20067;-61
2022/12/16 04:30:17;;;;;;;51.22;28.45;;;1.60;99.90;;;;;;5094601;28;20299;-62
2022/12/16 04:32:24;;;;;;;52.40;29.60;;;1.70;99.90;;;;;;5094471;28;20470;-62
2022/12/16 04:34:51;;;;;;;48.83;28.10;;;1.70;99.90;;;;;;5094450;28;20115;-62
